Time;durP1;ratioP1;P1;durP2;ratioP2;P2;SDS_P1;SDS_P2;PMS_P1;PMS_P2;Temp;Humidity;BMP_temperature;BMP_pressure;BME280_temperature;BME280_humidity;BME280_pressure;Samples;Min_cycle;Max_cycle;Signal;HPM_P1;HPM_P2
2023/06/06 00:00:15;;;;;;;8.18;4.70;;;15.30;99.90;;;-144.05;64.44;56780.88;5061453;28;20040;-80
2023/06/06 00:02:45;;;;;;;10.90;5.55;;;15.20;99.90;;;-144.05;64.83;56785.13;5062115;28;20036;-78
2023/06/06 00:05:14;;;;;;;9.57;5.57;;;15.20;99.90;;;-144.05;65.69;56797.88;5055475;28;20086;-79
2023/06/06 00:07:45;;;;;;;7.72;5.05;;;15.10;99.90;;;-144.05;65.45;56774.50;5056356;28;20478;-79
2023/06/06 00:10:15;;;;;;;7.40;4.72;;;15.00;99.90;;;-144.05;65.50;56778.75;5037620;28;20029;-81
2023/06/06 00:12:46;;;;;;;7.70;5.60;;;15.00;99.90;;;-144.05;66.15;56793.63;5055084;28;20036;-81
2023/06/06 00:15:15;;;;;;;8.02;5.28;;;15.00;99.90;;;-144.05;66.39;56787.25;5055260;28;20036;-80
2023/06/06 00:17:44;;;;;;;8.10;4.82;;;14.90;99.90;;;-144.05;66.11;56785.13;5037732;28;20475;-79
2023/06/06 00:20:12;;;;;;;5.97;4.53;;;14.80;99.90;;;-144.05;66.59;56806.34;5055222;28;20036;-79
2023/06/06 00:22:40;;;;;;;9.70;5.03;;;14.70;99.90;;;-144.05;66.96;56795.75;5037503;28;20044;-79
2023/06/06 00:25:07;;;;;;;11.40;5.35;;;14.60;99.90;;;-144.05;67.24;56816.97;5054980;28;20037;-80
2023/06/06 00:27:35;;;;;;;9.52;4.95;;;14.50;99.90;;;-144.05;67.79;56799.97;5054612;28;20109;-79
2023/06/06 00:30:04;;;;;;;11.15;5.45;;;14.40;99.90;;;-144.05;68.25;56778.75;5054882;28;20096;-80
2023/06/06 00:32:30;;;;;;;10.00;5.10;;;14.30;99.90;;;-144.05;68.43;56812.72;5036011;28;20124;-80
2023/06/06 00:34:56;;;;;;;8.10;4.63;;;14.30;99.90;;;-144.05;69.03;56806.34;5054147;28;20467;-79
2023/06/06 00:37:22;;;;;;;8.98;5.70;;;14.20;99.90;;;-144.05;69.58;56797.88;5036121;28;20029;-78
2023/06/06 00:39:48;;;;;;;9.40;5.65;;;14.20;99.90;;;-144.05;70.10;56789.38;5056276;28;20033;-82
2023/06/06 00:42:14;;;;;;;13.13;5.68;;;14.20;99.90;;;-144.05;70.14;56799.97;5036842;28;20056;-80
2023/06/06 00:44:40;;;;;;;6.95;5.20;;;14.20;99.90;;;-144.05;70.09;56791.50;5054533;28;20548;-78
2023/06/06 00:47:08;;;;;;;9.68;5.65;;;14.20;99.90;;;-144.05;70.23;56761.75;5054336;28;20398;-80
2023/06/06 00:49:37;;;;;;;11.82;5.32;;;14.20;99.90;;;-144.05;69.94;56785.13;5052904;28;20033;-79
2023/06/06 00:52:05;;;;;;;11.25;6.45;;;14.10;99.90;;;-144.05;70.50;56797.88;5036403;28;20036;-79
2023/06/06 00:54:35;;;;;;;9.43;5.82;;;14.10;99.90;;;-144.05;70.32;56789.38;5036080;28;20087;-80
2023/06/06 00:57:03;;;;;;;15.68;7.50;;;14.10;99.90;;;-144.05;70.74;56768.13;5053861;28;20560;-77
2023/06/06 00:59:30;;;;;;;10.45;6.28;;;14.00;99.90;;;-144.05;71.43;56787.25;5037224;28;20481;-79
2023/06/06 01:01:58;;;;;;;13.40;6.32;;;13.90;99.90;;;-144.05;71.52;56789.38;5037052;28;20374;-80
2023/06/06 01:04:25;;;;;;;13.15;7.47;;;13.90;99.90;;;-144.05;72.16;56776.63;5055434;28;20056;-79
2023/06/06 01:06:51;;;;;;;14.95;7.55;;;13.90;99.90;;;-144.05;72.16;56785.13;5057059;28;20029;-79
2023/06/06 01:09:19;;;;;;;12.38;7.57;;;14.00;99.90;;;-144.05;71.79;56806.34;5057737;28;20025;-78
2023/06/06 01:12:35;;;;;;;12.57;6.75;;;14.00;99.90;;;-144.05;71.82;56768.13;5056804;28;20021;-82
2023/06/06 01:15:17;;;;;;;12.95;7.35;;;13.90;99.90;;;-144.05;72.03;56783.00;5057641;28;20055;-80
2023/06/06 01:17:46;;;;;;;10.63;6.68;;;13.90;99.90;;;-144.05;71.79;56791.50;5055270;28;20021;-81
2023/06/06 01:20:14;;;;;;;10.98;6.57;;;13.90;99.90;;;-144.05;72.00;56785.13;5054393;28;20048;-80
2023/06/06 01:22:43;;;;;;;10.90;7.05;;;13.80;99.90;;;-144.05;72.06;56791.50;5053837;28;20444;-78
2023/06/06 01:25:10;;;;;;;12.65;6.65;;;13.80;99.90;;;-144.05;71.97;56791.50;5053376;28;20025;-80
2023/06/06 01:27:36;;;;;;;10.35;6.68;;;13.80;99.90;;;-144.05;72.67;56774.50;5053664;28;20079;-77
2023/06/06 01:30:06;;;;;;;11.55;6.93;;;13.70;99.90;;;-144.05;72.93;56795.75;5054103;28;20071;-80
2023/06/06 01:32:47;;;;;;;14.55;7.55;;;13.70;99.90;;;-144.05;73.07;56789.38;5035667;28;20120;-78
2023/06/06 01:36:01;;;;;;;13.35;7.15;;;13.60;99.90;;;-144.05;73.26;56763.88;5053366;28;20032;-79
2023/06/06 01:38:40;;;;;;;12.43;6.85;;;13.60;99.90;;;-144.05;73.00;56802.09;5052901;28;20044;-79
2023/06/06 01:41:16;;;;;;;14.90;7.63;;;13.60;99.90;;;-144.05;73.52;56774.50;5052731;28;20029;-80
2023/06/06 01:43:47;;;;;;;13.55;7.75;;;13.60;99.90;;;-144.05;73.55;56787.25;5053751;28;20047;-78
2023/06/06 01:46:15;;;;;;;15.30;6.80;;;13.60;99.90;;;-144.05;73.35;56797.88;5056439;28;20115;-79
2023/06/06 01:48:43;;;;;;;12.82;7.40;;;13.60;99.90;;;-144.05;73.68;56808.47;5057387;28;20112;-79
2023/06/06 01:51:09;;;;;;;11.98;7.00;;;13.50;99.90;;;-144.05;73.75;56783.00;5059038;28;20479;-80
2023/06/06 01:53:35;;;;;;;10.20;7.25;;;13.40;99.90;;;-144.05;74.01;56797.88;5041029;28;20025;-79
2023/06/06 01:56:01;;;;;;;15.15;7.85;;;13.50;99.90;;;-144.05;74.09;56793.63;5062296;28;20588;-80
2023/06/06 01:58:27;;;;;;;11.52;7.22;;;13.40;99.90;;;-144.05;74.08;56816.97;5061334;28;20024;-78
2023/06/06 02:00:52;;;;;;;13.88;7.72;;;13.40;99.90;;;-144.05;74.00;56772.38;5063328;28;20048;-82
2023/06/06 02:03:18;;;;;;;10.50;7.57;;;13.30;99.90;;;-144.05;74.26;56774.50;5042156;28;20221;-81
2023/06/06 02:08:12;;;;;;;15.73;7.80;;;13.20;99.90;;;-144.05;74.56;56785.13;5074721;28;20045;-83
2023/06/06 02:10:39;;;;;;;12.50;7.43;;;13.20;99.90;;;-144.05;74.74;56797.88;5058319;28;20173;-83
2023/06/06 02:13:04;;;;;;;14.40;7.35;;;13.10;99.90;;;-144.05;75.08;56802.09;5076770;28;20550;-82
2023/06/06 02:15:30;;;;;;;11.85;6.80;;;13.00;99.90;;;-144.05;75.20;56793.63;5058375;28;20037;-83
2023/06/06 02:17:56;;;;;;;13.05;7.70;;;13.00;99.90;;;-144.05;75.42;56795.75;5081951;28;20386;-82
2023/06/06 02:20:22;;;;;;;16.27;7.25;;;13.00;99.90;;;-144.05;76.07;56787.25;5091442;28;20028;-83
2023/06/06 02:22:48;;;;;;;14.52;7.88;;;12.90;99.90;;;-144.05;75.82;56802.09;5060093;28;20028;-83
2023/06/06 02:25:14;;;;;;;16.08;8.23;;;12.90;99.90;;;-144.05;76.00;56802.09;5079455;28;20032;-84
2023/06/06 02:27:43;;;;;;;11.60;7.68;;;12.80;99.90;;;-144.05;76.01;56778.75;5079591;28;20124;-84
2023/06/06 02:30:10;;;;;;;9.68;7.32;;;12.80;99.90;;;-144.05;75.92;56819.09;5078822;28;20112;-84
2023/06/06 02:32:36;;;;;;;14.60;8.30;;;12.70;99.90;;;-144.05;76.47;56789.38;5080079;28;20082;-83
2023/06/06 02:35:05;;;;;;;12.60;7.47;;;12.60;99.90;;;-144.05;76.44;56776.63;5061035;28;20028;-82
2023/06/06 02:37:32;;;;;;;13.95;7.85;;;12.60;99.90;;;-144.05;76.52;56780.88;5078684;28;20043;-84
2023/06/06 02:39:59;;;;;;;12.95;8.88;;;12.60;99.90;;;-144.05;76.77;56774.50;5060825;28;20063;-83
2023/06/06 02:42:25;;;;;;;13.38;8.25;;;12.60;99.90;;;-144.05;77.02;56791.50;5060643;28;20059;-84
2023/06/06 02:44:51;;;;;;;17.67;8.07;;;12.60;99.90;;;-144.05;77.16;56808.47;5076900;28;20028;-83
2023/06/06 02:47:17;;;;;;;14.93;8.13;;;12.60;99.90;;;-144.05;77.18;56774.50;5076828;28;20031;-83
2023/06/06 02:49:43;;;;;;;16.58;8.32;;;12.60;99.90;;;-144.05;76.91;56795.75;5077853;28;20020;-83
2023/06/06 02:52:08;;;;;;;15.80;9.00;;;12.60;99.90;;;-144.05;77.17;56789.38;5059150;28;20086;-83
2023/06/06 02:54:34;;;;;;;16.55;8.93;;;12.50;99.90;;;-144.05;77.16;56772.38;5077495;28;20032;-82
2023/06/06 02:57:01;;;;;;;21.45;9.55;;;12.50;99.90;;;-144.05;77.56;56795.75;5058415;28;20021;-83
2023/06/06 02:59:27;;;;;;;17.40;8.93;;;12.60;99.90;;;-144.05;77.59;56795.75;5077455;28;20020;-82
2023/06/06 03:01:53;;;;;;;14.95;9.05;;;12.50;99.90;;;-144.05;77.95;56783.00;5076992;28;20492;-82
2023/06/06 03:04:18;;;;;;;14.85;8.63;;;12.50;99.90;;;-144.05;77.58;56810.59;5077107;28;20024;-84
2023/06/06 03:06:44;;;;;;;12.23;8.48;;;12.50;99.90;;;-144.05;77.43;56785.13;5057878;28;20052;-82
2023/06/06 03:09:12;;;;;;;19.75;10.13;;;12.50;99.90;;;-144.05;78.08;56791.50;5076460;28;20119;-84
2023/06/06 03:11:38;;;;;;;15.93;8.73;;;12.40;99.90;;;-144.05;78.00;56789.38;5058813;28;20111;-83
2023/06/06 03:14:04;;;;;;;12.48;9.32;;;12.40;99.90;;;-144.05;77.82;56776.63;5074710;28;20768;-84
2023/06/06 03:16:30;;;;;;;19.17;9.27;;;12.30;99.90;;;-144.05;78.05;56789.38;5075010;28;20064;-84
2023/06/06 03:18:56;;;;;;;15.32;8.75;;;12.30;99.90;;;-144.05;78.21;56799.97;5058370;28;20171;-83
2023/06/06 03:21:22;;;;;;;18.42;10.35;;;12.30;99.90;;;-144.05;78.38;56797.88;5076827;28;20060;-83
2023/06/06 03:23:48;;;;;;;16.23;9.38;;;12.20;99.90;;;-144.05;78.22;56812.72;5059115;28;20591;-83
2023/06/06 03:26:15;;;;;;;13.45;9.13;;;12.20;99.90;;;-144.05;78.73;56812.72;5076880;28;20082;-84
2023/06/06 03:28:41;;;;;;;19.60;9.77;;;12.20;99.90;;;-144.05;78.94;56804.22;5076533;28;20055;-82
2023/06/06 03:31:08;;;;;;;17.42;9.85;;;12.10;99.90;;;-144.05;78.80;56810.59;5058633;28;20037;-82
2023/06/06 03:33:37;;;;;;;16.00;10.05;;;12.20;99.90;;;-144.05;79.02;56776.63;5058953;28;20150;-82
2023/06/06 03:36:06;;;;;;;18.63;9.75;;;12.10;99.90;;;-144.05;78.76;56778.75;5057756;28;20146;-81
2023/06/06 03:38:32;;;;;;;16.13;9.52;;;12.10;99.90;;;-144.05;78.83;56797.88;5075792;28;20393;-82
2023/06/06 03:40:57;;;;;;;15.30;9.32;;;12.10;99.90;;;-144.05;78.62;56804.22;5075640;28;20036;-81
2023/06/06 03:43:23;;;;;;;13.18;8.25;;;12.10;99.90;;;-144.05;78.74;56791.50;5079920;28;20087;-83
2023/06/06 03:45:49;;;;;;;18.38;8.77;;;12.10;99.90;;;-144.05;78.76;56789.38;5084116;28;20039;-82
2023/06/06 03:48:15;;;;;;;13.75;8.77;;;12.10;99.90;;;-144.05;78.88;56793.63;5075408;28;20020;-82
2023/06/06 03:50:41;;;;;;;15.10;9.65;;;12.10;99.90;;;-144.05;79.08;56783.00;5075142;28;20036;-83
2023/06/06 03:53:07;;;;;;;17.65;9.55;;;12.10;99.90;;;-144.05;78.67;56802.09;5056886;28;20036;-82
2023/06/06 03:55:34;;;;;;;14.32;9.50;;;12.10;99.90;;;-144.05;78.98;56774.50;5073232;28;20109;-83
2023/06/06 03:58:00;;;;;;;14.48;9.00;;;12.00;99.90;;;-144.05;78.96;56793.63;5074890;28;20131;-83
2023/06/06 04:00:27;;;;;;;15.65;9.35;;;12.00;99.90;;;-144.05;78.93;56797.88;5058364;28;20028;-82
2023/06/06 04:02:53;;;;;;;18.90;9.45;;;12.10;99.90;;;-144.05;78.78;56793.63;5075391;28;20413;-83
2023/06/06 04:05:19;;;;;;;16.85;10.07;;;12.10;99.90;;;-144.05;78.99;56789.38;5057137;28;20028;-82
2023/06/06 04:07:45;;;;;;;11.88;8.90;;;12.00;99.90;;;-144.05;79.08;56776.63;5075122;28;20025;-83
2023/06/06 04:10:12;;;;;;;13.90;8.75;;;12.00;99.90;;;-144.05;79.03;56802.09;5074144;28;20036;-82
2023/06/06 04:12:39;;;;;;;12.07;8.70;;;12.10;99.90;;;-144.05;79.09;56821.22;5075744;28;20028;-83
2023/06/06 04:15:09;;;;;;;18.27;9.25;;;12.10;99.90;;;-144.05;79.00;56778.75;5075875;28;20096;-81
2023/06/06 04:17:35;;;;;;;16.30;9.48;;;12.10;99.90;;;-144.05;78.73;56791.50;5075382;28;20033;-82
2023/06/06 04:20:03;;;;;;;19.30;10.68;;;12.10;99.90;;;-144.05;78.87;56778.75;5056864;28;20078;-79
2023/06/06 04:22:29;;;;;;;13.88;9.40;;;12.10;99.90;;;-144.05;78.82;56810.59;5075454;28;20392;-81
2023/06/06 04:24:55;;;;;;;14.25;9.20;;;12.20;99.90;;;-144.05;78.74;56793.63;5058263;28;20033;-83
2023/06/06 04:27:23;;;;;;;11.85;9.05;;;12.20;99.90;;;-144.05;78.73;56761.75;5076524;28;20547;-82
2023/06/06 04:29:51;;;;;;;16.70;9.38;;;12.20;99.90;;;-144.05;78.67;56804.22;5058634;28;20032;-82
2023/06/06 04:32:21;;;;;;;21.88;11.20;;;12.30;99.90;;;-144.05;78.16;56791.50;5076301;28;20060;-83
2023/06/06 04:34:51;;;;;;;21.45;9.82;;;12.30;99.90;;;-144.05;77.69;56776.63;5076813;28;20099;-83
2023/06/06 04:37:18;;;;;;;18.60;9.05;;;12.40;99.90;;;-144.05;77.15;56776.63;5066872;28;20033;-80
2023/06/06 04:39:45;;;;;;;18.98;9.30;;;12.50;99.90;;;-144.05;76.21;56772.38;5085227;28;20085;-85
2023/06/06 04:42:12;;;;;;;16.67;9.32;;;12.60;99.90;;;-144.05;76.08;56778.75;5077165;28;20408;-84
2023/06/06 04:44:42;;;;;;;16.60;9.40;;;12.80;99.90;;;-144.05;75.63;56787.25;5077073;28;20029;-82
2023/06/06 04:47:14;;;;;;;15.40;8.25;;;12.80;99.90;;;-144.05;75.23;56789.38;5076735;28;20508;-84
2023/06/06 04:49:40;;;;;;;16.40;8.82;;;12.90;99.90;;;-144.05;74.91;56783.00;5076772;28;20044;-83
2023/06/06 04:52:10;;;;;;;14.82;8.23;;;13.10;99.90;;;-144.05;74.16;56795.75;5058339;28;20021;-82
2023/06/06 04:54:40;;;;;;;12.30;8.02;;;13.20;99.90;;;-144.05;73.51;56789.38;5057601;28;20017;-85
2023/06/06 04:57:16;;;;;;;14.73;8.35;;;13.20;99.90;;;-144.05;72.81;56819.09;5075567;28;20023;-84
2023/06/06 04:59:52;;;;;;;15.52;8.60;;;13.40;99.90;;;-144.05;72.05;56783.00;5077793;28;20025;-83
2023/06/06 05:02:23;;;;;;;17.65;9.43;;;13.50;99.90;;;-144.05;71.02;56795.75;5058335;28;20151;-84
2023/06/06 05:04:57;;;;;;;16.85;8.95;;;13.60;99.90;;;-144.05;70.02;56810.59;5074255;28;20070;-84
2023/06/06 05:07:24;;;;;;;15.93;8.20;;;13.70;99.90;;;-144.05;69.63;56791.50;5057217;28;20466;-84
2023/06/06 05:09:55;;;;;;;15.35;8.73;;;13.80;99.90;;;-144.05;69.29;56810.59;5057302;28;20432;-81
2023/06/06 05:12:22;;;;;;;14.07;7.85;;;13.90;99.90;;;-144.05;68.66;56772.38;5058599;28;20028;-82
2023/06/06 05:14:51;;;;;;;16.83;8.55;;;14.00;99.90;;;-144.05;67.65;56812.72;5058941;28;20031;-82
2023/06/06 05:17:20;;;;;;;11.57;8.32;;;14.10;99.90;;;-144.05;66.97;56785.13;5058601;28;20060;-80
2023/06/06 05:19:46;;;;;;;16.45;9.13;;;14.20;99.90;;;-144.05;65.46;56808.47;5057921;28;20029;-82
2023/06/06 05:22:16;;;;;;;16.88;9.13;;;14.30;99.90;;;-144.05;65.42;56785.13;5058574;28;20029;-82
2023/06/06 05:24:43;;;;;;;17.98;8.63;;;14.40;99.90;;;-144.05;64.72;56787.25;5077727;28;20028;-82
2023/06/06 05:27:09;;;;;;;13.63;8.70;;;14.60;99.90;;;-144.05;63.64;56795.75;5075814;28;20048;-82
2023/06/06 05:29:36;;;;;;;14.50;8.93;;;14.80;99.90;;;-144.05;62.86;56799.97;5057371;28;20058;-84
2023/06/06 05:32:02;;;;;;;14.20;8.30;;;14.90;99.90;;;-144.05;62.14;56785.13;5057587;28;20081;-85
2023/06/06 05:34:28;;;;;;;17.20;8.73;;;15.10;99.90;;;-144.05;61.02;56793.63;5058055;28;20028;-83
2023/06/06 05:36:54;;;;;;;10.50;7.95;;;15.10;99.90;;;-144.05;61.13;56791.50;5076899;28;20032;-83
2023/06/06 05:39:20;;;;;;;14.93;8.13;;;15.20;99.90;;;-144.05;60.94;56787.25;5076538;28;20078;-82
2023/06/06 05:41:54;;;;;;;15.73;8.05;;;15.40;99.90;;;-144.05;60.41;56797.88;5076261;28;20028;-80
2023/06/06 05:44:23;;;;;;;13.88;7.55;;;15.70;99.90;;;-144.05;58.97;56799.97;5076307;28;20024;-84
2023/06/06 05:46:54;;;;;;;12.90;9.15;;;15.90;99.90;;;-144.05;57.63;56799.97;5074949;28;20059;-83
2023/06/06 05:49:21;;;;;;;16.55;8.65;;;15.90;99.90;;;-144.05;57.88;56802.09;5057785;28;20481;-84
2023/06/06 05:51:47;;;;;;;18.85;9.77;;;15.90;99.90;;;-144.05;57.81;56806.34;5075959;28;20021;-82
2023/06/06 05:54:15;;;;;;;14.50;8.80;;;16.10;99.90;;;-144.05;57.22;56797.88;5076178;28;20396;-82
2023/06/06 05:56:41;;;;;;;19.33;9.48;;;16.30;99.90;;;-144.05;56.45;56808.47;5075406;28;20033;-85
2023/06/06 05:59:08;;;;;;;15.55;9.70;;;16.40;99.90;;;-144.05;55.66;56783.00;5076022;28;20025;-84
2023/06/06 06:01:33;;;;;;;18.35;9.73;;;16.50;99.90;;;-144.05;55.02;56795.75;5089409;28;20009;-84
2023/06/06 06:03:59;;;;;;;18.58;9.65;;;16.60;99.90;;;-144.05;55.14;56804.22;5075431;28;20040;-84
2023/06/06 06:06:26;;;;;;;17.75;10.02;;;16.60;99.90;;;-144.05;55.23;56806.34;5092246;28;20036;-82
2023/06/06 06:08:55;;;;;;;16.38;9.45;;;16.70;99.90;;;-144.05;55.29;56806.34;5074236;28;20432;-85
2023/06/06 06:11:21;;;;;;;13.05;8.65;;;16.80;99.90;;;-144.05;54.05;56804.22;5090096;28;20029;-84
2023/06/06 06:13:47;;;;;;;14.15;9.13;;;16.90;99.90;;;-144.05;53.54;56787.25;5088751;28;20021;-85
2023/06/06 06:16:13;;;;;;;19.10;9.52;;;17.20;99.90;;;-144.05;52.64;56799.97;5085796;28;20047;-83
2023/06/06 06:18:39;;;;;;;17.42;8.40;;;17.10;99.90;;;-144.05;53.16;56827.59;5083131;28;20032;-85
2023/06/06 06:21:05;;;;;;;17.95;10.25;;;17.20;99.90;;;-144.05;52.89;56795.75;5069445;28;20063;-84
2023/06/06 06:23:31;;;;;;;14.85;9.15;;;17.40;99.90;;;-144.05;52.30;56838.22;5060587;28;20029;-83
2023/06/06 06:25:57;;;;;;;18.33;9.32;;;17.40;99.90;;;-144.05;51.66;56793.63;5074159;28;20044;-84
2023/06/06 06:28:25;;;;;;;15.35;9.10;;;17.50;99.90;;;-144.05;51.93;56804.22;5076038;28;20020;-86
2023/06/06 06:30:51;;;;;;;18.35;9.50;;;17.70;99.90;;;-144.05;51.67;56831.84;5074665;28;20056;-84
2023/06/06 06:33:17;;;;;;;14.50;8.30;;;17.80;99.90;;;-144.05;50.50;56812.72;5076356;28;20486;-84
2023/06/06 06:35:44;;;;;;;15.75;9.45;;;18.00;99.90;;;-144.05;50.31;56823.34;5078169;28;20023;-85
2023/06/06 06:38:10;;;;;;;12.38;8.68;;;18.20;99.90;;;-144.05;50.08;56831.84;5061319;28;20031;-82
2023/06/06 06:40:36;;;;;;;18.38;8.35;;;18.40;99.90;;;-144.05;49.60;56829.72;5079184;28;20029;-85
2023/06/06 06:43:03;;;;;;;15.25;8.63;;;18.50;99.90;;;-144.05;49.13;56812.72;5079396;28;20024;-85
2023/06/06 06:45:29;;;;;;;16.45;9.65;;;18.70;99.90;;;-144.05;48.15;56838.22;5079153;28;20482;-82
2023/06/06 06:47:55;;;;;;;15.25;8.98;;;18.70;99.90;;;-144.05;48.38;56836.09;5060440;28;20043;-84
2023/06/06 06:50:21;;;;;;;13.52;8.38;;;18.60;99.90;;;-144.05;49.24;56836.09;5078969;28;20490;-84
2023/06/06 06:52:48;;;;;;;11.88;8.65;;;18.70;99.90;;;-144.05;48.35;56812.72;5060560;28;20039;-85
2023/06/06 06:55:34;;;;;;;15.18;9.27;;;18.90;99.90;;;-144.05;47.86;56814.84;5066936;28;20025;-84
2023/06/06 06:58:01;;;;;;;16.73;9.18;;;19.00;99.90;;;-144.05;48.35;56812.72;5094973;28;20128;-84
2023/06/06 07:00:27;;;;;;;15.57;9.35;;;19.20;99.90;;;-144.05;45.92;56831.84;5064641;28;20170;-85
2023/06/06 07:02:54;;;;;;;19.00;9.48;;;19.50;99.90;;;-144.05;45.73;56823.34;5083915;28;20066;-84
2023/06/06 07:05:20;;;;;;;16.10;9.63;;;19.40;99.90;;;-144.05;46.57;56827.59;5068560;28;20053;-84
2023/06/06 07:07:52;;;;;;;15.65;9.65;;;19.40;99.90;;;-144.05;47.60;56848.84;5067808;28;20047;-84
2023/06/06 07:10:22;;;;;;;15.05;9.43;;;19.40;99.90;;;-144.05;46.96;56825.47;5081602;28;20039;-83
2023/06/06 07:12:51;;;;;;;16.98;8.18;;;19.70;99.90;;;-144.05;45.96;56861.56;5081820;28;20043;-82
2023/06/06 07:15:19;;;;;;;16.73;8.43;;;20.00;99.90;;;-144.05;45.09;56867.94;5063857;28;20291;-85
2023/06/06 07:17:49;;;;;;;14.05;7.78;;;20.20;99.90;;;-144.05;44.27;56870.06;5064335;28;20028;-83
2023/06/06 07:20:18;;;;;;;13.15;7.80;;;20.40;99.90;;;-144.05;43.97;56850.97;5065091;28;20033;-84
2023/06/06 07:22:45;;;;;;;18.77;8.93;;;20.40;99.90;;;-144.05;43.97;56836.09;5064333;28;20033;-82
2023/06/06 07:25:11;;;;;;;12.05;7.90;;;20.60;99.90;;;-144.05;43.97;56833.97;5081345;28;20024;-84
2023/06/06 07:27:38;;;;;;;12.70;7.57;;;20.50;99.90;;;-144.05;43.90;56867.94;5063874;28;20043;-84
2023/06/06 07:30:13;;;;;;;15.70;9.30;;;20.60;99.90;;;-144.05;42.78;56857.34;5062859;28;20469;-82
2023/06/06 07:32:46;;;;;;;11.67;7.70;;;20.90;99.90;;;-144.05;42.94;56865.81;5063614;28;20029;-85
2023/06/06 07:35:16;;;;;;;15.32;8.45;;;21.20;99.90;;;-144.05;42.40;56867.94;5081378;28;20297;-84
2023/06/06 07:37:42;;;;;;;12.82;7.90;;;21.00;99.90;;;-144.05;42.41;56857.34;5062444;28;20406;-83
2023/06/06 07:40:11;;;;;;;17.38;7.90;;;21.20;99.90;;;-144.05;42.87;56876.44;5078278;28;20043;-85
2023/06/06 07:42:40;;;;;;;13.10;7.60;;;21.30;99.90;;;-144.05;41.91;56876.44;5060526;28;20062;-83
2023/06/06 07:45:09;;;;;;;13.00;7.75;;;21.70;99.90;;;-144.05;41.77;56863.69;5061918;28;20099;-83
2023/06/06 07:47:35;;;;;;;12.40;7.93;;;21.70;99.90;;;-144.05;41.06;56859.47;5080811;28;20540;-84
2023/06/06 07:50:02;;;;;;;13.75;7.60;;;22.00;99.90;;;-144.05;42.13;56844.59;5081597;28;20040;-85
2023/06/06 07:52:30;;;;;;;13.70;7.65;;;21.60;99.90;;;-144.05;41.85;56880.69;5063163;28;20028;-83
2023/06/06 07:54:58;;;;;;;10.18;7.13;;;22.10;99.90;;;-144.05;40.71;56893.44;5063014;28;20074;-85
2023/06/06 07:57:25;;;;;;;14.05;8.20;;;22.20;99.90;;;-144.05;40.73;56891.31;5064025;28;20048;-84
2023/06/06 07:59:53;;;;;;;14.55;7.78;;;22.00;99.90;;;-144.05;41.00;56878.56;5061740;28;20418;-84
2023/06/06 08:02:19;;;;;;;18.48;7.50;;;22.00;99.90;;;-144.05;41.29;56884.94;5080506;28;20400;-83
2023/06/06 08:04:45;;;;;;;14.20;8.10;;;22.00;99.90;;;-144.05;41.29;56904.06;5062983;28;20020;-85
2023/06/06 08:07:14;;;;;;;10.32;6.65;;;21.90;99.90;;;-144.05;41.48;56910.44;5081009;22;20041;-79
2023/06/06 08:09:43;;;;;;;12.95;7.22;;;21.90;99.90;;;-144.05;40.81;56893.44;5042470;28;20033;-81
2023/06/06 08:12:11;;;;;;;9.40;6.93;;;22.30;99.90;;;-144.05;40.55;56878.56;5058918;28;20095;-82
2023/06/06 08:14:38;;;;;;;12.98;7.25;;;22.40;99.90;;;-144.05;40.72;56893.44;5042456;28;20553;-79
2023/06/06 08:17:05;;;;;;;12.10;7.88;;;22.50;99.90;;;-144.05;40.12;56897.69;5059847;28;20078;-79
2023/06/06 08:19:32;;;;;;;12.40;6.75;;;22.60;99.90;;;-144.05;39.75;56908.31;5058267;28;20098;-79
2023/06/06 08:22:01;;;;;;;13.23;7.95;;;22.80;99.90;;;-144.05;39.57;56906.19;5040474;28;20029;-78
2023/06/06 08:24:28;;;;;;;13.25;7.47;;;23.00;99.90;;;-144.05;39.39;56927.41;5040641;28;20057;-79
2023/06/06 08:26:54;;;;;;;10.70;7.30;;;23.10;99.90;;;-144.05;38.79;56901.94;5039475;28;20119;-80
2023/06/06 08:29:20;;;;;;;13.68;7.60;;;23.20;99.90;;;-144.05;39.22;56904.06;5039605;28;20025;-78
2023/06/06 08:31:46;;;;;;;11.55;6.90;;;23.60;99.90;;;-144.05;38.32;56908.31;5058926;28;20116;-80
2023/06/06 08:34:13;;;;;;;10.55;6.88;;;23.70;99.90;;;-144.05;38.24;56931.66;5040000;28;20033;-79
2023/06/06 08:36:38;;;;;;;12.50;7.18;;;23.70;99.90;;;-144.05;37.82;56933.78;5041839;28;20074;-79
2023/06/06 08:39:06;;;;;;;7.95;5.68;;;23.70;99.90;;;-144.05;37.86;56946.53;5042343;28;20171;-80
2023/06/06 08:41:34;;;;;;;14.20;7.15;;;23.90;99.90;;;-144.05;37.62;56974.16;5043790;28;20410;-78
2023/06/06 08:44:05;;;;;;;12.00;7.07;;;24.30;99.90;;;-144.05;36.91;56959.28;5042823;28;20029;-79
2023/06/06 08:46:33;;;;;;;11.70;6.90;;;24.50;99.90;;;-144.05;36.64;56950.78;5042239;28;20060;-80
2023/06/06 08:49:04;;;;;;;14.27;7.47;;;24.40;99.90;;;-144.05;36.37;56980.53;5042081;28;20025;-82
2023/06/06 08:51:31;;;;;;;11.07;7.07;;;24.50;99.90;;;-144.05;36.65;56974.16;5059302;28;20052;-79
2023/06/06 08:54:02;;;;;;;11.20;7.53;;;24.60;99.90;;;-144.05;36.53;56952.91;5058695;28;20021;-80
2023/06/06 08:56:28;;;;;;;12.80;7.03;;;24.50;99.90;;;-144.05;36.56;56976.28;5044313;28;20032;-82
2023/06/06 08:58:55;;;;;;;10.98;7.28;;;24.50;99.90;;;-144.05;36.07;56972.03;5041743;28;20421;-82
2023/06/06 09:01:22;;;;;;;11.63;8.20;;;24.70;99.90;;;-144.05;36.44;56950.78;5041878;28;20032;-81
2023/06/06 09:03:56;;;;;;;14.32;7.30;;;24.50;99.60;;;-144.05;36.66;56946.53;5058957;28;20081;-81
2023/06/06 09:06:22;;;;;;;10.95;7.03;;;24.30;99.90;;;-144.05;36.59;56986.91;5042410;28;20037;-81
2023/06/06 09:08:50;;;;;;;12.75;7.40;;;24.50;99.90;;;-144.05;36.26;56980.53;5058989;28;20032;-82
2023/06/06 09:11:17;;;;;;;11.20;7.78;;;24.80;99.90;;;-144.05;36.75;56950.78;5039990;28;20122;-78
2023/06/06 09:13:45;;;;;;;14.45;6.82;;;25.00;99.90;;;-144.05;35.72;56984.78;5057699;28;20056;-80
2023/06/06 09:16:15;;;;;;;13.60;7.25;;;25.10;98.50;;;-144.05;35.49;56999.63;5038497;28;20021;-82
2023/06/06 09:18:42;;;;;;;8.43;6.13;;;25.10;98.00;;;-144.05;35.00;56978.41;5039852;28;20028;-80
2023/06/06 09:21:09;;;;;;;8.25;5.97;;;25.20;96.30;;;-144.05;34.38;56984.78;5039983;28;20037;-81
2023/06/06 09:23:35;;;;;;;8.93;6.53;;;25.30;95.50;;;-144.05;34.49;56974.16;5057162;28;20445;-81
2023/06/06 09:26:01;;;;;;;8.80;6.38;;;25.50;95.00;;;-144.05;34.81;56991.13;5039530;28;20021;-82
2023/06/06 09:28:40;;;;;;;11.65;7.55;;;25.40;95.80;;;-144.05;34.17;56989.00;5056840;28;20029;-80
2023/06/06 09:31:37;;;;;;;8.32;5.75;;;25.40;94.10;;;-144.05;34.87;56965.66;5058696;28;20029;-81
2023/06/06 09:34:05;;;;;;;12.07;7.32;;;25.40;94.90;;;-144.05;34.96;56963.53;5040040;28;20434;-81
2023/06/06 09:36:31;;;;;;;11.80;6.40;;;25.50;95.40;;;-144.05;33.49;57012.38;5057731;28;20056;-82
2023/06/06 09:39:13;;;;;;;12.57;6.68;;;25.70;92.70;;;-144.05;34.11;56980.53;5038927;28;20025;-81
2023/06/06 09:41:48;;;;;;;9.65;6.28;;;25.70;93.70;;;-144.05;33.92;57031.50;5057528;28;20510;-81
2023/06/06 09:44:22;;;;;;;10.50;6.17;;;26.10;93.30;;;-144.05;32.92;56997.50;5039435;28;20040;-81
2023/06/06 09:47:03;;;;;;;17.05;8.20;;;26.50;91.70;;;-144.05;34.20;56993.25;5057322;28;20037;-80
2023/06/06 09:49:37;;;;;;;14.45;7.30;;;25.90;92.50;;;-144.05;34.81;57006.00;5057004;28;20033;-83
2023/06/06 09:52:05;;;;;;;15.45;6.97;;;26.00;93.70;;;-144.05;34.29;57018.75;5057387;28;20036;-81
2023/06/06 09:54:33;;;;;;;10.63;6.13;;;25.90;92.30;;;-144.05;34.18;56995.38;5060572;28;20025;-82
2023/06/06 09:57:13;;;;;;;9.98;6.15;;;25.80;92.40;;;-144.05;34.63;56978.41;5061817;28;20044;-82
2023/06/06 09:59:43;;;;;;;9.52;6.40;;;26.10;93.00;;;-144.05;32.89;56999.63;5060218;28;20036;-81
2023/06/06 10:02:14;;;;;;;10.43;6.70;;;26.10;90.20;;;-144.05;33.04;57012.38;5040302;28;20025;-81
2023/06/06 10:04:42;;;;;;;10.35;5.93;;;26.20;90.10;;;-144.05;32.96;57044.25;5040907;28;20029;-79
2023/06/06 10:07:09;;;;;;;10.38;6.90;;;26.70;90.20;;;-144.05;32.99;57018.75;5058578;28;20044;-81